Arta, Spain
Current Conditions -  °F | °C
As of 1:30 PM on Thursday 18 Dec 2014 (Local Time) from LEPA Reporting Station
Clear Clear  
Wind Chill: 63°   Ceiling: Unl
Heat Index: 63°   Visibility: 6mi
Dew Point: 48°   Wind: 7mph
Humidity: 59%   Direction: 300°WNW
Pressure: 30.21"   Gusts: NA
Location:  39.69°N, 3.35°E
Report Text: LEPA 181230Z 30006KT CAVOK 17/09 Q1023 NOSIG
Loading
Personal Weather Stations






























Interactive Weather Map New forecast layout! Learn more

10-Day Weather Forecast

Advertisements
Track Severe Weather on mobile